Time;durP1;ratioP1;P1;durP2;ratioP2;P2;SDS_P1;SDS_P2;PMS_P1;PMS_P2;Temp;Humidity;BMP_temperature;BMP_pressure;BME280_temperature;BME280_humidity;BME280_pressure;Samples;Min_cycle;Max_cycle;Signal;HPM_P1;HPM_P2
2021/10/21 00:01:07;;;;;;;7.40;3.93;;;14.90;99.90;;;;;;5047725;28;20654;-52
2021/10/21 00:03:35;;;;;;;7.20;3.63;;;14.90;99.90;;;;;;5041873;28;20284;-51
2021/10/21 00:06:06;;;;;;;3.77;3.20;;;14.90;99.90;;;;;;5042634;28;20264;-51
2021/10/21 00:08:33;;;;;;;9.73;4.83;;;14.90;99.90;;;;;;5043320;28;20215;-51
2021/10/21 00:11:00;;;;;;;7.97;3.60;;;14.90;99.90;;;;;;5044100;28;20207;-51
2021/10/21 00:13:27;;;;;;;5.37;2.93;;;14.90;99.90;;;;;;5044266;28;20288;-50
2021/10/21 00:15:53;;;;;;;5.27;2.87;;;14.80;99.90;;;;;;5043678;28;20247;-51
2021/10/21 00:18:20;;;;;;;5.20;3.07;;;14.70;99.90;;;;;;5045896;28;20223;-51
2021/10/21 00:20:47;;;;;;;4.87;2.67;;;14.70;99.90;;;;;;5041878;28;20738;-50
2021/10/21 00:23:14;;;;;;;5.20;2.47;;;14.70;99.90;;;;;;5045318;28;20634;-51
2021/10/21 00:25:41;;;;;;;3.27;1.80;;;14.60;99.90;;;;;;5042856;28;20684;-51
2021/10/21 00:28:08;;;;;;;3.07;1.90;;;14.60;99.90;;;;;;5044320;28;20615;-51
2021/10/21 00:30:34;;;;;;;3.77;2.20;;;14.50;99.90;;;;;;5044400;28;20741;-51
2021/10/21 00:33:01;;;;;;;3.70;2.13;;;14.60;99.90;;;;;;5041550;28;20639;-51
2021/10/21 00:35:28;;;;;;;3.17;2.30;;;14.60;99.90;;;;;;5045228;28;20447;-51
2021/10/21 00:37:55;;;;;;;4.50;2.80;;;14.60;99.90;;;;;;5041075;28;20253;-51
2021/10/21 00:40:22;;;;;;;5.03;2.40;;;14.60;99.90;;;;;;5042697;28;20309;-51
2021/10/21 00:42:50;;;;;;;4.97;3.00;;;14.70;99.90;;;;;;5044541;28;20248;-51
2021/10/21 00:45:16;;;;;;;4.27;2.80;;;14.60;99.90;;;;;;5044507;28;21069;-53
2021/10/21 00:47:44;;;;;;;4.70;2.80;;;14.60;99.90;;;;;;5043009;28;20684;-50
2021/10/21 00:50:11;;;;;;;4.00;2.37;;;14.70;99.90;;;;;;5042789;28;20261;-50
2021/10/21 00:52:38;;;;;;;2.30;1.80;;;14.70;99.90;;;;;;5045147;28;20642;-50
2021/10/21 00:55:07;;;;;;;4.53;2.07;;;14.80;99.90;;;;;;5041774;28;20272;-50
2021/10/21 00:57:36;;;;;;;3.07;1.70;;;14.80;99.90;;;;;;5042832;28;20210;-52
2021/10/21 01:00:04;;;;;;;1.67;1.43;;;14.80;99.90;;;;;;5047433;28;20590;-50
2021/10/21 01:02:31;;;;;;;3.60;1.40;;;14.70;99.90;;;;;;5050540;28;20331;-50
2021/10/21 01:04:58;;;;;;;3.97;1.40;;;14.70;99.90;;;;;;5037180;28;20238;-50
2021/10/21 01:07:25;;;;;;;2.90;1.03;;;14.60;99.90;;;;;;5043095;28;20594;-53
2021/10/21 01:09:54;;;;;;;3.73;1.20;;;14.50;99.90;;;;;;5041538;28;20219;-50
2021/10/21 01:12:21;;;;;;;2.87;1.00;;;14.40;99.90;;;;;;5041145;28;20631;-53
2021/10/21 01:14:48;;;;;;;5.27;0.93;;;14.40;99.90;;;;;;5044051;28;20969;-51
2021/10/21 01:17:16;;;;;;;2.43;1.00;;;14.40;99.90;;;;;;5044721;28;20195;-50
2021/10/21 01:19:43;;;;;;;1.00;0.67;;;14.20;99.90;;;;;;5038952;28;20677;-51
2021/10/21 01:22:11;;;;;;;2.70;0.97;;;14.00;99.90;;;;;;5054749;28;20716;-51
2021/10/21 01:24:38;;;;;;;4.70;0.90;;;13.80;99.90;;;;;;5044104;28;20291;-51
2021/10/21 01:27:04;;;;;;;1.83;0.70;;;13.70;99.90;;;;;;5044813;28;20416;-51
2021/10/21 01:29:31;;;;;;;4.33;0.70;;;13.60;99.90;;;;;;5044289;28;20289;-50
2021/10/21 01:31:59;;;;;;;2.90;0.57;;;13.60;99.90;;;;;;5042537;28;20201;-51
2021/10/21 01:34:27;;;;;;;1.73;0.80;;;13.50;99.90;;;;;;5043631;28;20704;-51
2021/10/21 01:36:54;;;;;;;3.87;0.60;;;13.50;99.90;;;;;;5049573;28;20292;-51
2021/10/21 01:39:26;;;;;;;4.27;1.00;;;13.50;99.90;;;;;;5049380;28;20294;-51
2021/10/21 01:41:54;;;;;;;1.87;0.60;;;13.40;99.90;;;;;;5044984;28;20544;-50
2021/10/21 01:44:21;;;;;;;1.30;0.60;;;13.00;99.90;;;;;;5046313;28;20215;-51
2021/10/21 01:46:48;;;;;;;1.47;0.50;;;12.80;99.90;;;;;;5040689;28;20310;-50
2021/10/21 01:49:15;;;;;;;1.10;0.40;;;12.80;99.90;;;;;;5044945;28;20235;-50
2021/10/21 01:51:42;;;;;;;0.80;0.50;;;12.80;99.90;;;;;;5040391;28;20229;-50
2021/10/21 01:54:09;;;;;;;2.90;0.40;;;12.80;99.90;;;;;;5042388;28;20632;-50
2021/10/21 01:56:36;;;;;;;1.20;0.60;;;12.80;99.90;;;;;;5043959;28;20768;-50
2021/10/21 01:59:03;;;;;;;4.00;0.83;;;12.90;99.90;;;;;;5046567;28;20653;-50
2021/10/21 02:01:30;;;;;;;4.13;0.70;;;12.90;99.90;;;;;;5043617;28;20228;-51
2021/10/21 02:03:57;;;;;;;6.63;0.43;;;13.00;99.90;;;;;;5048003;28;20236;-51
2021/10/21 02:06:24;;;;;;;1.20;0.50;;;13.00;99.90;;;;;;5043640;28;20236;-51
2021/10/21 02:08:51;;;;;;;2.70;0.50;;;13.00;99.90;;;;;;5043394;28;20209;-51
2021/10/21 02:11:18;;;;;;;3.70;0.60;;;13.00;99.90;;;;;;5038712;28;20318;-51
2021/10/21 02:13:45;;;;;;;1.43;0.50;;;13.00;99.90;;;;;;5044527;28;20200;-49
2021/10/21 02:16:13;;;;;;;4.53;0.50;;;13.00;99.90;;;;;;5040780;28;20216;-49
2021/10/21 02:18:40;;;;;;;4.73;0.50;;;13.00;99.90;;;;;;5043351;28;20227;-52
2021/10/21 02:21:07;;;;;;;1.33;0.53;;;13.00;99.90;;;;;;5042282;28;20224;-52
2021/10/21 02:23:34;;;;;;;2.23;0.90;;;13.00;99.90;;;;;;5041615;28;20282;-52
2021/10/21 02:26:01;;;;;;;4.07;0.70;;;13.00;99.90;;;;;;5041533;28;20204;-51
2021/10/21 02:28:29;;;;;;;2.10;0.60;;;13.00;99.90;;;;;;5054375;28;20200;-51
2021/10/21 02:30:56;;;;;;;3.93;0.80;;;13.00;99.90;;;;;;5040251;28;20222;-51
2021/10/21 02:33:23;;;;;;;3.77;0.80;;;13.00;99.90;;;;;;5042295;28;20242;-51
2021/10/21 02:35:50;;;;;;;3.57;0.60;;;13.10;99.90;;;;;;5040516;28;20223;-51
2021/10/21 02:38:17;;;;;;;3.77;0.60;;;13.10;99.90;;;;;;5039444;28;20196;-51
2021/10/21 02:40:44;;;;;;;4.27;0.50;;;13.10;99.90;;;;;;5045672;28;20235;-51
2021/10/21 02:43:12;;;;;;;4.67;0.50;;;13.10;99.90;;;;;;5039839;28;20668;-52
2021/10/21 02:45:42;;;;;;;1.57;1.33;;;13.10;99.90;;;;;;5041940;28;20242;-51
2021/10/21 02:48:09;;;;;;;3.53;0.60;;;13.10;99.90;;;;;;5042943;28;20710;-52
2021/10/21 02:50:36;;;;;;;4.53;0.80;;;12.90;99.90;;;;;;5037858;28;20208;-51
2021/10/21 02:53:03;;;;;;;2.37;0.77;;;12.70;99.90;;;;;;5040078;28;20253;-51
2021/10/21 02:55:29;;;;;;;3.30;0.60;;;12.70;99.90;;;;;;5040660;28;20219;-51
2021/10/21 02:57:56;;;;;;;1.10;0.50;;;12.60;99.90;;;;;;5042765;28;20362;-51
2021/10/21 03:00:23;;;;;;;0.73;0.40;;;12.50;99.90;;;;;;5045622;28;20207;-51
2021/10/21 03:02:50;;;;;;;5.23;0.60;;;12.40;99.90;;;;;;5044012;28;20286;-52
2021/10/21 03:05:17;;;;;;;3.97;0.60;;;12.40;99.90;;;;;;5040073;28;20670;-51
2021/10/21 03:07:44;;;;;;;4.87;0.80;;;12.40;99.90;;;;;;5042768;28;20274;-51
2021/10/21 03:10:11;;;;;;;3.77;0.53;;;12.40;99.90;;;;;;5042192;28;20207;-51
2021/10/21 03:12:37;;;;;;;3.30;0.60;;;12.50;99.90;;;;;;5021183;28;20402;-52
2021/10/21 03:15:25;;;;;;;1.60;0.60;;;12.40;99.90;;;;;;5041878;28;20666;-52
2021/10/21 03:17:52;;;;;;;3.60;0.57;;;12.40;99.90;;;;;;5040788;28;20245;-52
2021/10/21 03:20:19;;;;;;;5.07;0.80;;;12.40;99.90;;;;;;5023692;28;20202;-51
2021/10/21 03:22:46;;;;;;;4.00;1.20;;;12.30;99.90;;;;;;5043644;28;20199;-51
2021/10/21 03:25:13;;;;;;;4.00;0.80;;;12.30;99.90;;;;;;5036446;28;20207;-51
2021/10/21 03:27:41;;;;;;;1.50;0.70;;;12.30;99.90;;;;;;5036949;28;20234;-51
2021/10/21 03:30:09;;;;;;;4.23;0.77;;;12.20;99.90;;;;;;5037862;28;20227;-51
2021/10/21 03:32:36;;;;;;;3.73;0.63;;;12.30;99.90;;;;;;5039596;28;20253;-51
2021/10/21 03:35:04;;;;;;;3.93;1.00;;;12.20;99.90;;;;;;5038903;28;20197;-51
2021/10/21 03:37:31;;;;;;;5.00;0.73;;;12.20;99.90;;;;;;5040449;28;20230;-51
2021/10/21 03:39:57;;;;;;;3.70;0.87;;;12.20;99.90;;;;;;5041536;28;20241;-51
2021/10/21 03:42:25;;;;;;;3.73;0.73;;;12.30;99.90;;;;;;5039497;28;20198;-51
2021/10/21 03:44:54;;;;;;;1.50;0.90;;;12.20;99.90;;;;;;5039002;28;20197;-51
2021/10/21 03:47:21;;;;;;;4.23;0.80;;;12.20;99.90;;;;;;5040523;28;20235;-51
2021/10/21 03:49:50;;;;;;;5.70;0.97;;;12.20;99.90;;;;;;5039402;28;20206;-51
2021/10/21 03:52:18;;;;;;;4.43;0.73;;;12.10;99.90;;;;;;5038917;28;20203;-50
2021/10/21 03:54:49;;;;;;;1.40;1.03;;;12.10;99.90;;;;;;5038470;28;20303;-50
2021/10/21 03:57:16;;;;;;;6.13;0.90;;;12.10;99.90;;;;;;5035705;28;20298;-49
2021/10/21 03:59:43;;;;;;;4.90;0.83;;;12.10;99.90;;;;;;5038142;28;20269;-49
2021/10/21 04:02:10;;;;;;;3.93;0.70;;;12.10;99.90;;;;;;5045214;28;20203;-50
2021/10/21 04:04:37;;;;;;;3.73;0.90;;;12.10;99.90;;;;;;5040697;28;20295;-50
2021/10/21 04:07:04;;;;;;;3.03;0.90;;;12.00;99.90;;;;;;5040815;28;20231;-49
2021/10/21 04:09:31;;;;;;;4.53;0.90;;;12.00;99.90;;;;;;5041400;28;20207;-52
2021/10/21 04:11:58;;;;;;;4.90;0.90;;;11.90;99.90;;;;;;5036014;28;20281;-50
2021/10/21 04:14:25;;;;;;;1.73;0.70;;;11.90;99.90;;;;;;5038469;28;20199;-50
2021/10/21 04:16:56;;;;;;;3.47;0.70;;;12.00;99.90;;;;;;5038909;28;20223;-50
2021/10/21 04:19:23;;;;;;;2.67;0.70;;;11.90;99.90;;;;;;5035054;28;20199;-51
2021/10/21 04:21:50;;;;;;;4.90;1.20;;;12.00;99.90;;;;;;5038471;28;20254;-50
2021/10/21 04:24:17;;;;;;;4.23;0.80;;;11.90;99.90;;;;;;5041140;28;20252;-50
2021/10/21 04:26:44;;;;;;;5.97;1.10;;;12.00;99.90;;;;;;5043468;28;20655;-50
2021/10/21 04:29:11;;;;;;;4.23;1.33;;;12.00;99.90;;;;;;5043252;28;20293;-50
2021/10/21 04:31:38;;;;;;;1.80;0.80;;;12.00;99.90;;;;;;5043715;28;20647;-50
2021/10/21 04:34:05;;;;;;;6.03;0.80;;;12.00;99.90;;;;;;5043713;28;20517;-50
2021/10/21 04:36:32;;;;;;;4.27;0.80;;;12.00;99.90;;;;;;5041187;28;20261;-50
2021/10/21 04:38:59;;;;;;;2.67;1.00;;;11.90;99.90;;;;;;5042702;28;20282;-50
2021/10/21 04:41:26;;;;;;;5.77;0.90;;;11.90;99.90;;;;;;5041954;28;20263;-50
2021/10/21 04:43:53;;;;;;;4.10;0.80;;;11.90;99.90;;;;;;5044039;28;20257;-50
2021/10/21 04:46:19;;;;;;;3.83;1.20;;;11.80;99.90;;;;;;5039904;28;20615;-50
2021/10/21 04:48:46;;;;;;;3.37;0.80;;;11.80;99.90;;;;;;5030163;28;20217;-50
2021/10/21 04:51:13;;;;;;;4.77;0.90;;;11.80;99.90;;;;;;5039282;28;20253;-50
2021/10/21 04:53:40;;;;;;;1.03;0.70;;;11.70;99.90;;;;;;5042410;28;20268;-50
2021/10/21 04:56:08;;;;;;;4.33;1.40;;;11.80;99.90;;;;;;5044402;28;20269;-50
2021/10/21 04:58:35;;;;;;;6.27;1.30;;;11.80;99.90;;;;;;5042192;28;20247;-50
2021/10/21 05:01:02;;;;;;;5.33;1.30;;;11.80;99.90;;;;;;5042698;28;20220;-50
2021/10/21 05:03:29;;;;;;;2.50;1.23;;;11.80;99.90;;;;;;5044665;28;20196;-50
2021/10/21 05:05:56;;;;;;;1.70;1.27;;;11.90;99.90;;;;;;5042527;28;20219;-50
2021/10/21 05:08:23;;;;;;;4.70;1.63;;;11.90;99.90;;;;;;5042197;28;20535;-50
2021/10/21 05:10:50;;;;;;;6.13;1.63;;;12.00;99.90;;;;;;5047147;28;20722;-50
2021/10/21 05:13:17;;;;;;;1.57;0.57;;;12.00;99.90;;;;;;5041431;28;20334;-50
2021/10/21 05:15:44;;;;;;;1.53;0.30;;;11.80;99.90;;;;;;5043564;28;20218;-50
2021/10/21 05:18:11;;;;;;;1.87;0.47;;;11.70;99.90;;;;;;5042899;28;20231;-50
2021/10/21 05:20:38;;;;;;;1.50;0.63;;;11.70;99.90;;;;;;5042765;28;20235;-50
2021/10/21 05:23:05;;;;;;;2.03;0.50;;;11.60;99.90;;;;;;5040346;28;20204;-50
2021/10/21 05:25:32;;;;;;;2.50;0.60;;;11.60;99.90;;;;;;5043325;28;20666;-50
2021/10/21 05:27:59;;;;;;;1.63;0.50;;;11.60;99.90;;;;;;5039848;28;20234;-50
2021/10/21 05:30:26;;;;;;;4.60;0.87;;;11.60;99.90;;;;;;5046495;28;20286;-50
2021/10/21 05:32:53;;;;;;;0.83;0.40;;;11.50;99.90;;;;;;5042509;28;20590;-50
2021/10/21 05:35:20;;;;;;;5.77;0.50;;;11.50;99.90;;;;;;5042008;28;20214;-52
2021/10/21 05:37:47;;;;;;;5.50;0.70;;;11.50;99.90;;;;;;5042710;28;20742;-52
2021/10/21 05:40:14;;;;;;;1.80;0.60;;;11.50;99.90;;;;;;5042042;28;20380;-52
2021/10/21 05:42:41;;;;;;;1.33;0.67;;;11.50;99.90;;;;;;5043049;28;20416;-50
2021/10/21 05:45:08;;;;;;;5.53;0.80;;;11.50;99.90;;;;;;5041735;28;20281;-52
2021/10/21 05:47:35;;;;;;;1.83;0.30;;;11.40;99.90;;;;;;5042306;28;20690;-52
2021/10/21 05:50:04;;;;;;;4.07;0.70;;;11.50;99.90;;;;;;5041853;28;20201;-52
2021/10/21 05:52:30;;;;;;;5.43;0.80;;;11.50;99.90;;;;;;5044935;28;20199;-52
2021/10/21 05:54:57;;;;;;;5.97;0.73;;;11.50;99.90;;;;;;5044859;28;20612;-51
2021/10/21 05:57:24;;;;;;;3.60;0.80;;;11.50;99.90;;;;;;5033321;28;20305;-51
2021/10/21 05:59:51;;;;;;;6.20;1.00;;;11.50;99.90;;;;;;5042933;28;20631;-51
2021/10/21 06:02:18;;;;;;;3.50;0.90;;;11.50;99.90;;;;;;5033856;28;20239;-51
2021/10/21 06:04:45;;;;;;;7.97;1.33;;;11.40;99.90;;;;;;5041649;28;20241;-51
2021/10/21 06:07:12;;;;;;;4.77;1.27;;;11.40;99.90;;;;;;5040746;28;20293;-51
2021/10/21 06:09:40;;;;;;;9.33;1.83;;;11.40;99.90;;;;;;5046818;28;20302;-51
2021/10/21 06:12:08;;;;;;;5.30;1.30;;;11.40;99.90;;;;;;5041596;28;20230;-51
2021/10/21 06:14:35;;;;;;;8.23;1.40;;;11.50;99.90;;;;;;5041259;28;20525;-51
2021/10/21 06:17:02;;;;;;;7.40;1.10;;;11.50;99.90;;;;;;5044806;28;20215;-52
2021/10/21 06:19:29;;;;;;;10.80;1.70;;;11.50;99.90;;;;;;5040886;28;20222;-51
2021/10/21 06:22:08;;;;;;;9.93;1.33;;;11.50;99.90;;;;;;5038451;28;20651;-51
2021/10/21 06:24:35;;;;;;;6.10;1.13;;;11.50;99.90;;;;;;5041323;28;20229;-52
2021/10/21 06:27:02;;;;;;;13.33;1.53;;;11.40;99.90;;;;;;5047558;28;20262;-52
2021/10/21 06:29:29;;;;;;;6.40;1.10;;;11.50;99.90;;;;;;5044223;28;20206;-52
2021/10/21 06:31:57;;;;;;;9.33;1.53;;;11.50;99.90;;;;;;5040927;28;20719;-52
2021/10/21 06:34:24;;;;;;;10.40;1.27;;;11.50;99.90;;;;;;5042196;28;20544;-51
2021/10/21 06:36:52;;;;;;;8.53;1.40;;;11.50;99.90;;;;;;5034637;28;20284;-52
2021/10/21 06:39:19;;;;;;;6.67;1.40;;;11.60;99.90;;;;;;5036161;28;20514;-53
2021/10/21 06:41:45;;;;;;;7.20;2.67;;;11.50;99.90;;;;;;5037356;28;20269;-51
2021/10/21 06:44:12;;;;;;;11.00;1.93;;;11.50;99.90;;;;;;5039446;28;20281;-51
2021/10/21 06:46:39;;;;;;;11.90;2.17;;;11.60;99.90;;;;;;5037635;28;20710;-51
2021/10/21 06:49:06;;;;;;;6.83;1.73;;;11.70;99.90;;;;;;5037797;28;20209;-52
2021/10/21 06:51:33;;;;;;;5.23;1.27;;;11.60;99.90;;;;;;5032560;28;20492;-52
2021/10/21 06:54:00;;;;;;;5.53;1.50;;;11.60;99.90;;;;;;5038773;28;20211;-52
2021/10/21 06:56:32;;;;;;;4.57;1.53;;;11.60;99.90;;;;;;5035482;28;20223;-52
2021/10/21 06:58:59;;;;;;;5.07;1.20;;;11.40;99.90;;;;;;5033518;28;20523;-51
2021/10/21 07:01:26;;;;;;;9.77;1.40;;;11.40;99.90;;;;;;5037539;28;20228;-52
2021/10/21 07:03:53;;;;;;;3.37;1.93;;;11.30;99.90;;;;;;5038152;28;20349;-50
2021/10/21 07:06:20;;;;;;;5.73;1.30;;;11.30;99.90;;;;;;5038347;28;20298;-50
2021/10/21 07:08:48;;;;;;;5.60;1.20;;;11.40;99.90;;;;;;5032304;28;20196;-50
2021/10/21 07:11:15;;;;;;;6.13;1.40;;;11.30;99.90;;;;;;5036521;28;20198;-50
2021/10/21 07:13:42;;;;;;;10.53;2.20;;;11.40;99.90;;;;;;5038115;28;20230;-50
2021/10/21 07:16:10;;;;;;;12.53;1.83;;;11.40;99.90;;;;;;5036211;28;20669;-52
2021/10/21 07:18:37;;;;;;;10.63;1.77;;;11.40;99.90;;;;;;5036483;28;20219;-50
2021/10/21 07:21:04;;;;;;;9.47;2.07;;;11.50;99.90;;;;;;5036486;28;20232;-52
2021/10/21 07:23:31;;;;;;;9.87;2.13;;;11.40;99.90;;;;;;5037527;28;20194;-52
2021/10/21 07:25:58;;;;;;;5.53;2.03;;;11.50;99.90;;;;;;5034725;28;21041;-51
2021/10/21 07:28:25;;;;;;;7.67;1.50;;;11.40;99.90;;;;;;5033944;28;20206;-52
2021/10/21 07:30:56;;;;;;;5.07;0.97;;;11.50;99.90;;;;;;5034296;28;20221;-52
2021/10/21 07:33:24;;;;;;;4.53;1.30;;;11.50;99.90;;;;;;5034680;28;20225;-52
2021/10/21 07:35:51;;;;;;;9.83;1.30;;;11.50;99.90;;;;;;5034313;28;20684;-51
2021/10/21 07:38:18;;;;;;;7.47;1.63;;;11.60;99.90;;;;;;5038196;28;20339;-52
2021/10/21 07:40:45;;;;;;;8.37;1.77;;;11.60;99.90;;;;;;5034748;28;20218;-52
2021/10/21 07:43:13;;;;;;;5.80;1.80;;;11.70;99.90;;;;;;5032861;28;20194;-52
2021/10/21 07:45:40;;;;;;;6.60;1.30;;;11.70;99.90;;;;;;5034972;28;20288;-52
2021/10/21 07:48:07;;;;;;;13.03;2.37;;;11.70;99.90;;;;;;5036613;28;20327;-52
2021/10/21 07:50:36;;;;;;;7.50;1.40;;;11.70;99.90;;;;;;5033331;28;20614;-52
2021/10/21 07:53:06;;;;;;;8.97;1.50;;;11.70;99.90;;;;;;5034338;28;20196;-52
2021/10/21 07:55:34;;;;;;;8.90;1.60;;;11.90;99.90;;;;;;5035172;28;20289;-51
2021/10/21 07:58:01;;;;;;;8.77;1.20;;;12.20;99.90;;;;;;5033348;28;20745;-51
2021/10/21 08:00:28;;;;;;;5.40;1.30;;;12.40;99.90;;;;;;5035081;28;20670;-51
2021/10/21 08:02:56;;;;;;;4.97;1.10;;;12.40;99.90;;;;;;5039220;28;20261;-51
2021/10/21 08:05:24;;;;;;;7.37;1.40;;;12.50;99.90;;;;;;5037385;28;20809;-51
2021/10/21 08:07:51;;;;;;;5.27;1.00;;;12.50;99.90;;;;;;5037045;28;20663;-51
2021/10/21 08:10:23;;;;;;;5.77;1.23;;;12.70;99.90;;;;;;5043533;28;20230;-51
2021/10/21 08:12:50;;;;;;;7.23;1.33;;;12.90;99.90;;;;;;5037006;28;20557;-51
2021/10/21 08:15:18;;;;;;;5.67;0.97;;;13.10;99.90;;;;;;5040385;28;20194;-51
2021/10/21 08:17:45;;;;;;;5.37;1.23;;;13.30;99.90;;;;;;5047061;28;20745;-52
2021/10/21 08:20:13;;;;;;;8.43;1.03;;;13.20;75.90;;;;;;5039794;28;20628;-52
2021/10/21 08:22:42;;;;;;;8.10;1.23;;;13.30;83.60;;;;;;5038308;28;20219;-50
2021/10/21 08:25:10;;;;;;;6.33;1.27;;;13.50;28.30;;;;;;5040488;28;20239;-49
2021/10/21 08:27:38;;;;;;;8.07;1.70;;;13.60;98.70;;;;;;5043949;28;20344;-50
2021/10/21 08:30:07;;;;;;;6.63;1.13;;;13.50;31.20;;;;;;5040630;28;20249;-50
2021/10/21 08:32:35;;;;;;;6.23;1.00;;;13.50;19.20;;;;;;5038305;28;20213;-50
2021/10/21 08:35:03;;;;;;;3.70;1.07;;;13.30;93.00;;;;;;5035751;28;20667;-50
2021/10/21 08:37:30;;;;;;;5.90;1.30;;;12.90;99.90;;;;;;5038914;28;20258;-51
2021/10/21 08:39:57;;;;;;;6.30;1.37;;;12.50;99.90;;;;;;5046177;28;20250;-51
2021/10/21 08:42:24;;;;;;;7.40;1.20;;;12.40;99.90;;;;;;5046257;28;20199;-50
2021/10/21 08:44:52;;;;;;;3.80;1.00;;;12.50;99.90;;;;;;5040117;28;20206;-50
2021/10/21 08:47:20;;;;;;;3.17;1.10;;;12.80;99.90;;;;;;5040380;28;20235;-50
2021/10/21 08:49:47;;;;;;;9.50;1.47;;;13.00;99.90;;;;;;5045749;28;20267;-50
2021/10/21 08:52:15;;;;;;;6.37;1.30;;;13.10;99.90;;;;;;5035622;28;21035;-50
2021/10/21 08:54:42;;;;;;;5.90;1.40;;;13.10;99.90;;;;;;5045257;28;20607;-50
2021/10/21 08:57:11;;;;;;;5.00;1.27;;;13.10;99.90;;;;;;5043172;28;21003;-50
2021/10/21 08:59:47;;;;;;;5.27;1.27;;;12.80;99.90;;;;;;5042516;28;20200;-50
2021/10/21 09:02:20;;;;;;;6.97;0.93;;;12.50;99.90;;;;;;5049388;28;20207;-50
2021/10/21 09:10:12;;;;;;;6.37;1.60;;;11.90;99.90;;;;;;5041040;28;20421;-50
2021/10/21 09:12:46;;;;;;;3.80;1.23;;;11.60;99.90;;;;;;5033186;28;20627;-50
2021/10/21 09:15:19;;;;;;;4.97;1.30;;;11.40;99.90;;;;;;5040333;28;20593;-51
2021/10/21 09:17:47;;;;;;;2.67;0.97;;;11.20;99.90;;;;;;5043791;28;20313;-51
2021/10/21 09:20:38;;;;;;;3.67;0.87;;;11.00;99.90;;;;;;5046807;28;20296;-49
2021/10/21 09:23:17;;;;;;;4.70;0.80;;;10.90;99.90;;;;;;5046263;28;20631;-52
2021/10/21 09:25:47;;;;;;;3.43;0.73;;;10.80;99.90;;;;;;5036711;28;20222;-51
2021/10/21 09:28:27;;;;;;;6.63;1.03;;;10.70;99.90;;;;;;5043373;28;20679;-52
2021/10/21 09:31:09;;;;;;;4.37;1.10;;;10.70;99.90;;;;;;5051965;28;20237;-52
2021/10/21 09:33:46;;;;;;;5.37;1.17;;;10.60;99.90;;;;;;5040957;28;20203;-49
2021/10/21 09:36:18;;;;;;;6.97;1.00;;;10.50;99.90;;;;;;5042710;28;20231;-50
2021/10/21 09:38:53;;;;;;;4.93;1.10;;;10.40;99.90;;;;;;5043842;28;20254;-50
2021/10/21 09:41:23;;;;;;;5.43;1.30;;;10.30;99.90;;;;;;5039988;28;20201;-52
2021/10/21 09:43:52;;;;;;;6.40;1.53;;;10.20;99.90;;;;;;5034353;28;20228;-50
2021/10/21 09:46:31;;;;;;;5.00;1.57;;;10.20;99.90;;;;;;5043400;28;20197;-52
2021/10/21 09:49:33;;;;;;;4.03;1.30;;;10.30;99.90;;;;;;5042529;28;20202;-51
2021/10/21 09:52:03;;;;;;;5.97;1.23;;;10.30;99.90;;;;;;5040037;28;20554;-52
2021/10/21 09:54:30;;;;;;;2.70;0.90;;;10.40;99.90;;;;;;5043424;28;20197;-51
2021/10/21 09:57:13;;;;;;;2.67;1.37;;;10.50;99.90;;;;;;5045553;28;20217;-50
2021/10/21 09:59:40;;;;;;;4.77;1.07;;;10.60;99.90;;;;;;5044919;28;20741;-51
2021/10/21 10:02:16;;;;;;;6.30;1.43;;;10.60;99.90;;;;;;5046461;28;20195;-51
2021/10/21 10:04:54;;;;;;;4.07;1.30;;;10.60;99.90;;;;;;5036454;28;21200;-51
2021/10/21 10:07:27;;;;;;;7.83;1.40;;;10.70;99.90;;;;;;5036415;28;20612;-52
2021/10/21 10:10:01;;;;;;;4.53;1.27;;;10.70;99.90;;;;;;5036756;28;20635;-52
2021/10/21 10:12:30;;;;;;;1.57;1.20;;;10.80;99.90;;;;;;5039083;28;20672;-51
2021/10/21 10:14:57;;;;;;;3.67;1.03;;;10.90;99.90;;;;;;5039559;28;20209;-51
2021/10/21 10:17:27;;;;;;;4.53;1.00;;;10.80;99.90;;;;;;5035804;28;20560;-51
2021/10/21 10:19:54;;;;;;;2.67;0.90;;;10.70;99.90;;;;;;5044148;28;20198;-51
2021/10/21 10:22:34;;;;;;;7.70;1.20;;;10.90;99.90;;;;;;5048826;28;20619;-52
2021/10/21 10:25:19;;;;;;;4.00;1.10;;;11.00;99.90;;;;;;5042622;28;20254;-52
2021/10/21 10:27:54;;;;;;;5.07;1.00;;;10.90;99.90;;;;;;5045080;28;20620;-52
2021/10/21 10:30:44;;;;;;;3.87;0.70;;;11.00;99.90;;;;;;5039856;28;20664;-52
2021/10/21 10:33:12;;;;;;;4.63;0.83;;;11.10;99.90;;;;;;5041075;28;20207;-52
2021/10/21 10:35:41;;;;;;;2.47;0.80;;;11.20;99.90;;;;;;5041122;28;20287;-51
2021/10/21 10:38:09;;;;;;;3.17;0.70;;;11.30;99.90;;;;;;5040478;28;20234;-52
2021/10/21 10:40:45;;;;;;;2.50;1.00;;;11.40;99.90;;;;;;5044467;28;20193;-52
2021/10/21 10:43:14;;;;;;;3.53;0.87;;;11.40;99.90;;;;;;5041777;28;20675;-51
2021/10/21 10:46:00;;;;;;;3.53;1.20;;;11.30;99.90;;;;;;5041413;28;20196;-52
2021/10/21 10:48:46;;;;;;;2.57;0.90;;;11.30;99.90;;;;;;5039946;28;20214;-52
2021/10/21 10:51:13;;;;;;;5.93;1.43;;;11.30;99.90;;;;;;5039982;28;20209;-52
2021/10/21 10:53:58;;;;;;;6.97;1.53;;;11.30;99.90;;;;;;5042951;28;20278;-50
2021/10/21 10:56:37;;;;;;;3.47;1.10;;;11.30;99.90;;;;;;5036915;28;20197;-52
2021/10/21 10:59:31;;;;;;;6.03;1.23;;;11.20;99.90;;;;;;5045472;28;20220;-52
2021/10/21 11:02:00;;;;;;;5.37;1.40;;;11.20;99.90;;;;;;5038449;28;20273;-52
2021/10/21 11:04:52;;;;;;;10.90;1.40;;;11.20;99.90;;;;;;5047978;28;20579;-52
2021/10/21 11:07:39;;;;;;;4.10;1.00;;;11.20;99.90;;;;;;5042065;28;20239;-52
2021/10/21 11:10:18;;;;;;;4.23;1.60;;;11.10;99.90;;;;;;5039996;28;20200;-49
2021/10/21 11:12:46;;;;;;;4.57;1.10;;;11.20;99.90;;;;;;5041991;28;20214;-52
2021/10/21 11:15:31;;;;;;;4.93;0.90;;;11.30;99.90;;;;;;5042292;28;20575;-52
2021/10/21 11:18:00;;;;;;;5.43;1.27;;;11.20;99.90;;;;;;5037556;28;20224;-52
2021/10/21 11:20:47;;;;;;;4.47;1.20;;;11.40;99.90;;;;;;5038874;28;20217;-51
2021/10/21 11:23:26;;;;;;;6.00;1.00;;;11.60;99.90;;;;;;5037681;28;20468;-50
2021/10/21 11:25:56;;;;;;;1.97;1.00;;;11.90;99.90;;;;;;5033541;28;20223;-50
2021/10/21 11:28:31;;;;;;;7.83;1.33;;;12.10;99.90;;;;;;5039478;28;20203;-50
2021/10/21 11:30:59;;;;;;;4.33;1.20;;;12.30;99.90;;;;;;5042919;28;20619;-51
2021/10/21 11:33:27;;;;;;;5.23;1.03;;;12.10;99.90;;;;;;5037876;28;20568;-51
2021/10/21 11:36:00;;;;;;;3.07;1.20;;;11.90;99.90;;;;;;5039834;28;20382;-51
2021/10/21 11:38:27;;;;;;;5.80;0.80;;;11.70;99.90;;;;;;5041053;28;20267;-51
2021/10/21 11:40:58;;;;;;;2.17;0.60;;;11.60;99.90;;;;;;5039900;28;20207;-51
2021/10/21 11:43:38;;;;;;;3.57;0.93;;;11.40;99.90;;;;;;5040503;28;20189;-51
2021/10/21 11:46:07;;;;;;;3.27;0.47;;;11.20;99.90;;;;;;5040917;28;20244;-51
2021/10/21 11:48:39;;;;;;;1.87;0.67;;;11.20;99.90;;;;;;5042911;28;20200;-51
2021/10/21 11:51:13;;;;;;;1.00;0.27;;;11.40;99.90;;;;;;5037432;28;20665;-50
2021/10/21 11:53:41;;;;;;;2.37;0.73;;;12.00;99.90;;;;;;5040739;28;20211;-51
2021/10/21 11:56:10;;;;;;;4.77;0.97;;;12.10;99.90;;;;;;5045317;28;20204;-50
2021/10/21 11:58:38;;;;;;;2.10;0.50;;;12.10;99.90;;;;;;5044045;28;20208;-51
2021/10/21 12:01:07;;;;;;;4.30;0.70;;;11.90;99.90;;;;;;5040039;28;20667;-51
2021/10/21 12:03:39;;;;;;;4.73;0.60;;;12.10;99.90;;;;;;5045331;28;20201;-50
2021/10/21 12:06:09;;;;;;;3.50;1.07;;;12.00;99.90;;;;;;5031658;28;20193;-50
2021/10/21 12:08:37;;;;;;;1.97;0.40;;;11.70;99.90;;;;;;5038791;28;20225;-51
2021/10/21 12:11:07;;;;;;;1.07;0.40;;;11.70;99.90;;;;;;5044188;28;20201;-51
2021/10/21 12:13:36;;;;;;;1.53;0.40;;;11.50;99.90;;;;;;5037525;28;21229;-51
2021/10/21 12:16:21;;;;;;;1.67;0.50;;;11.60;99.90;;;;;;5040458;28;20196;-51
2021/10/21 12:19:09;;;;;;;1.43;0.43;;;11.90;99.90;;;;;;5039350;28;20726;-51
2021/10/21 12:21:38;;;;;;;2.23;0.77;;;12.00;99.90;;;;;;5046383;28;20591;-51
2021/10/21 12:24:19;;;;;;;2.27;0.70;;;12.00;99.90;;;;;;5043319;28;20197;-51
2021/10/21 12:26:56;;;;;;;5.20;1.00;;;11.60;99.90;;;;;;5046374;28;20688;-51
2021/10/21 12:29:32;;;;;;;2.50;0.60;;;11.60;99.90;;;;;;5040305;28;20212;-51
2021/10/21 12:31:59;;;;;;;3.57;0.60;;;11.70;99.90;;;;;;5041604;28;20207;-51
2021/10/21 12:34:30;;;;;;;3.77;0.67;;;11.80;99.90;;;;;;5037482;28;20206;-51
2021/10/21 12:36:57;;;;;;;3.13;0.40;;;11.70;99.90;;;;;;5039667;28;20224;-51
2021/10/21 12:39:34;;;;;;;1.80;0.73;;;11.70;99.90;;;;;;5053874;28;20242;-51
2021/10/21 12:42:09;;;;;;;2.40;0.63;;;11.70;99.90;;;;;;5034159;28;20285;-51
2021/10/21 12:44:44;;;;;;;2.73;0.50;;;12.00;99.90;;;;;;5041796;28;20210;-51
2021/10/21 12:47:34;;;;;;;1.70;0.50;;;11.80;99.90;;;;;;5034087;28;20687;-51
2021/10/21 12:50:07;;;;;;;2.97;0.77;;;11.80;99.90;;;;;;5043432;28;20217;-51
2021/10/21 12:52:37;;;;;;;4.53;0.53;;;11.70;99.90;;;;;;5036086;28;20283;-51
2021/10/21 12:55:10;;;;;;;4.40;0.60;;;11.60;99.90;;;;;;5041456;28;20235;-51
2021/10/21 12:58:04;;;;;;;0.97;0.37;;;11.30;99.90;;;;;;5043684;28;20231;-51
2021/10/21 13:00:38;;;;;;;2.60;0.80;;;11.30;99.90;;;;;;5038730;28;20212;-51
2021/10/21 13:03:21;;;;;;;3.60;0.93;;;11.30;99.90;;;;;;5045239;28;20200;-51